sensor_id;sensor_type;location;lat;lon;timestamp;P1;durP1;ratioP1;P2;durP2;ratioP2
6463;SDS011;3265;42.694;23.282;2022-10-17T00:00:41;29.63;;;13.33;;
6463;SDS011;3265;42.694;23.282;2022-10-17T00:03:08;25.17;;;14.30;;
6463;SDS011;3265;42.694;23.282;2022-10-17T00:05:37;21.03;;;11.93;;
6463;SDS011;3265;42.694;23.282;2022-10-17T00:08:05;23.17;;;14.10;;
6463;SDS011;3265;42.694;23.282;2022-10-17T00:10:32;22.03;;;13.13;;
6463;SDS011;3265;42.694;23.282;2022-10-17T00:13:00;21.17;;;11.40;;
6463;SDS011;3265;42.694;23.282;2022-10-17T00:15:27;19.60;;;11.83;;
6463;SDS011;3265;42.694;23.282;2022-10-17T00:17:54;18.13;;;10.53;;
6463;SDS011;3265;42.694;23.282;2022-10-17T00:20:21;15.90;;;10.03;;
6463;SDS011;3265;42.694;23.282;2022-10-17T00:22:48;16.07;;;9.77;;
6463;SDS011;3265;42.694;23.282;2022-10-17T00:25:15;20.57;;;11.30;;
6463;SDS011;3265;42.694;23.282;2022-10-17T00:27:42;19.67;;;10.80;;
6463;SDS011;3265;42.694;23.282;2022-10-17T00:30:11;14.60;;;9.83;;
6463;SDS011;3265;42.694;23.282;2022-10-17T00:32:40;14.37;;;9.80;;
6463;SDS011;3265;42.694;23.282;2022-10-17T00:35:07;16.67;;;9.70;;
6463;SDS011;3265;42.694;23.282;2022-10-17T00:37:34;16.83;;;9.70;;
6463;SDS011;3265;42.694;23.282;2022-10-17T00:40:02;16.57;;;9.83;;
6463;SDS011;3265;42.694;23.282;2022-10-17T00:42:29;19.83;;;10.97;;
6463;SDS011;3265;42.694;23.282;2022-10-17T00:45:02;16.93;;;10.83;;
6463;SDS011;3265;42.694;23.282;2022-10-17T00:47:33;21.00;;;10.73;;
6463;SDS011;3265;42.694;23.282;2022-10-17T00:50:01;21.03;;;12.37;;
6463;SDS011;3265;42.694;23.282;2022-10-17T00:52:29;22.53;;;13.30;;
6463;SDS011;3265;42.694;23.282;2022-10-17T00:54:58;20.57;;;11.87;;
6463;SDS011;3265;42.694;23.282;2022-10-17T00:57:29;20.73;;;11.63;;
6463;SDS011;3265;42.694;23.282;2022-10-17T00:59:57;21.47;;;11.03;;
6463;SDS011;3265;42.694;23.282;2022-10-17T01:02:27;19.50;;;11.00;;
6463;SDS011;3265;42.694;23.282;2022-10-17T01:04:56;16.80;;;9.53;;
6463;SDS011;3265;42.694;23.282;2022-10-17T01:07:24;20.00;;;10.03;;
6463;SDS011;3265;42.694;23.282;2022-10-17T01:09:52;19.43;;;10.00;;
6463;SDS011;3265;42.694;23.282;2022-10-17T01:12:21;20.53;;;11.67;;
6463;SDS011;3265;42.694;23.282;2022-10-17T01:14:58;20.60;;;12.20;;
6463;SDS011;3265;42.694;23.282;2022-10-17T01:17:36;21.70;;;11.83;;
6463;SDS011;3265;42.694;23.282;2022-10-17T01:23:26;18.70;;;11.60;;
6463;SDS011;3265;42.694;23.282;2022-10-17T01:26:10;24.90;;;11.67;;
6463;SDS011;3265;42.694;23.282;2022-10-17T01:28:50;28.37;;;17.37;;
6463;SDS011;3265;42.694;23.282;2022-10-17T01:31:41;18.23;;;11.47;;
6463;SDS011;3265;42.694;23.282;2022-10-17T01:34:13;20.83;;;12.90;;
6463;SDS011;3265;42.694;23.282;2022-10-17T01:36:47;20.47;;;12.93;;
6463;SDS011;3265;42.694;23.282;2022-10-17T01:39:19;25.33;;;13.60;;
6463;SDS011;3265;42.694;23.282;2022-10-17T01:41:55;23.87;;;13.97;;
6463;SDS011;3265;42.694;23.282;2022-10-17T01:44:28;25.23;;;15.10;;
6463;SDS011;3265;42.694;23.282;2022-10-17T01:47:02;23.10;;;14.33;;
6463;SDS011;3265;42.694;23.282;2022-10-17T01:49:32;25.43;;;14.30;;
6463;SDS011;3265;42.694;23.282;2022-10-17T01:52:02;24.60;;;14.17;;
6463;SDS011;3265;42.694;23.282;2022-10-17T01:54:36;27.23;;;14.60;;
6463;SDS011;3265;42.694;23.282;2022-10-17T01:57:07;30.23;;;15.03;;
6463;SDS011;3265;42.694;23.282;2022-10-17T01:59:38;24.90;;;14.87;;
6463;SDS011;3265;42.694;23.282;2022-10-17T02:02:09;24.93;;;14.60;;
6463;SDS011;3265;42.694;23.282;2022-10-17T02:04:40;26.43;;;15.27;;
6463;SDS011;3265;42.694;23.282;2022-10-17T02:07:08;23.20;;;14.93;;
6463;SDS011;3265;42.694;23.282;2022-10-17T02:09:37;25.73;;;15.50;;
6463;SDS011;3265;42.694;23.282;2022-10-17T02:15:13;26.47;;;15.20;;
6463;SDS011;3265;42.694;23.282;2022-10-17T02:18:02;24.80;;;14.33;;
6463;SDS011;3265;42.694;23.282;2022-10-17T02:20:43;25.40;;;16.00;;
6463;SDS011;3265;42.694;23.282;2022-10-17T02:23:19;24.53;;;14.50;;
6463;SDS011;3265;42.694;23.282;2022-10-17T02:25:54;29.03;;;16.63;;
6463;SDS011;3265;42.694;23.282;2022-10-17T02:28:28;27.43;;;16.63;;
6463;SDS011;3265;42.694;23.282;2022-10-17T02:30:59;31.03;;;16.47;;
6463;SDS011;3265;42.694;23.282;2022-10-17T02:33:31;24.63;;;16.17;;
6463;SDS011;3265;42.694;23.282;2022-10-17T02:36:06;41.90;;;17.03;;
6463;SDS011;3265;42.694;23.282;2022-10-17T02:38:36;29.23;;;17.07;;
6463;SDS011;3265;42.694;23.282;2022-10-17T02:41:06;28.37;;;17.90;;
6463;SDS011;3265;42.694;23.282;2022-10-17T02:43:36;36.73;;;17.43;;
6463;SDS011;3265;42.694;23.282;2022-10-17T02:46:04;31.27;;;18.70;;
6463;SDS011;3265;42.694;23.282;2022-10-17T02:48:35;35.30;;;20.90;;
6463;SDS011;3265;42.694;23.282;2022-10-17T02:51:09;30.60;;;19.73;;
6463;SDS011;3265;42.694;23.282;2022-10-17T02:53:43;39.57;;;19.13;;
6463;SDS011;3265;42.694;23.282;2022-10-17T02:56:15;31.83;;;18.10;;
6463;SDS011;3265;42.694;23.282;2022-10-17T02:58:45;34.23;;;18.87;;
6463;SDS011;3265;42.694;23.282;2022-10-17T03:01:15;31.83;;;19.93;;
6463;SDS011;3265;42.694;23.282;2022-10-17T03:03:44;37.63;;;20.97;;
6463;SDS011;3265;42.694;23.282;2022-10-17T03:06:11;39.37;;;20.63;;
6463;SDS011;3265;42.694;23.282;2022-10-17T03:08:38;35.73;;;21.27;;
6463;SDS011;3265;42.694;23.282;2022-10-17T03:11:05;36.73;;;20.90;;
6463;SDS011;3265;42.694;23.282;2022-10-17T03:13:32;37.27;;;20.23;;
6463;SDS011;3265;42.694;23.282;2022-10-17T03:15:58;40.07;;;20.80;;
6463;SDS011;3265;42.694;23.282;2022-10-17T03:18:25;42.73;;;23.17;;
6463;SDS011;3265;42.694;23.282;2022-10-17T03:20:54;47.73;;;24.00;;
6463;SDS011;3265;42.694;23.282;2022-10-17T03:23:20;47.43;;;25.17;;
6463;SDS011;3265;42.694;23.282;2022-10-17T03:25:47;42.87;;;26.50;;
6463;SDS011;3265;42.694;23.282;2022-10-17T03:28:14;56.83;;;31.07;;
6463;SDS011;3265;42.694;23.282;2022-10-17T03:30:40;50.23;;;30.93;;
6463;SDS011;3265;42.694;23.282;2022-10-17T03:33:07;54.43;;;29.47;;
6463;SDS011;3265;42.694;23.282;2022-10-17T03:35:34;55.33;;;30.87;;
6463;SDS011;3265;42.694;23.282;2022-10-17T03:38:05;62.37;;;33.10;;
6463;SDS011;3265;42.694;23.282;2022-10-17T03:40:32;64.80;;;36.13;;
6463;SDS011;3265;42.694;23.282;2022-10-17T03:42:58;51.93;;;29.37;;
6463;SDS011;3265;42.694;23.282;2022-10-17T03:45:25;58.43;;;31.77;;
6463;SDS011;3265;42.694;23.282;2022-10-17T03:47:52;63.97;;;34.07;;
6463;SDS011;3265;42.694;23.282;2022-10-17T03:50:19;59.93;;;32.40;;
6463;SDS011;3265;42.694;23.282;2022-10-17T03:52:45;61.13;;;30.87;;
6463;SDS011;3265;42.694;23.282;2022-10-17T03:55:14;51.47;;;29.90;;
6463;SDS011;3265;42.694;23.282;2022-10-17T03:57:42;52.83;;;28.33;;
6463;SDS011;3265;42.694;23.282;2022-10-17T04:00:09;47.20;;;27.70;;
6463;SDS011;3265;42.694;23.282;2022-10-17T04:02:36;46.83;;;26.97;;
6463;SDS011;3265;42.694;23.282;2022-10-17T04:05:04;47.13;;;27.23;;
6463;SDS011;3265;42.694;23.282;2022-10-17T04:07:31;46.93;;;27.07;;
6463;SDS011;3265;42.694;23.282;2022-10-17T04:09:58;45.07;;;26.43;;
6463;SDS011;3265;42.694;23.282;2022-10-17T04:12:26;41.67;;;24.83;;
6463;SDS011;3265;42.694;23.282;2022-10-17T04:14:53;46.30;;;26.70;;
6463;SDS011;3265;42.694;23.282;2022-10-17T04:17:20;47.73;;;29.20;;
6463;SDS011;3265;42.694;23.282;2022-10-17T04:19:47;65.13;;;35.90;;
6463;SDS011;3265;42.694;23.282;2022-10-17T04:22:14;55.03;;;33.10;;
6463;SDS011;3265;42.694;23.282;2022-10-17T04:24:41;57.43;;;32.87;;
6463;SDS011;3265;42.694;23.282;2022-10-17T04:27:08;54.80;;;28.93;;
6463;SDS011;3265;42.694;23.282;2022-10-17T04:29:37;56.73;;;28.53;;
6463;SDS011;3265;42.694;23.282;2022-10-17T04:32:04;63.30;;;33.60;;
6463;SDS011;3265;42.694;23.282;2022-10-17T04:34:30;60.97;;;31.50;;
6463;SDS011;3265;42.694;23.282;2022-10-17T04:36:57;57.63;;;31.47;;
6463;SDS011;3265;42.694;23.282;2022-10-17T04:39:24;51.90;;;28.83;;
6463;SDS011;3265;42.694;23.282;2022-10-17T04:41:51;61.57;;;31.13;;
6463;SDS011;3265;42.694;23.282;2022-10-17T04:44:21;53.80;;;30.50;;
6463;SDS011;3265;42.694;23.282;2022-10-17T04:46:49;58.20;;;33.57;;
6463;SDS011;3265;42.694;23.282;2022-10-17T04:49:16;60.10;;;34.57;;
6463;SDS011;3265;42.694;23.282;2022-10-17T04:51:43;79.97;;;33.97;;
6463;SDS011;3265;42.694;23.282;2022-10-17T04:54:10;66.20;;;33.20;;
6463;SDS011;3265;42.694;23.282;2022-10-17T04:56:36;70.03;;;34.53;;
6463;SDS011;3265;42.694;23.282;2022-10-17T04:59:03;83.63;;;37.17;;
6463;SDS011;3265;42.694;23.282;2022-10-17T05:01:30;72.53;;;35.80;;
6463;SDS011;3265;42.694;23.282;2022-10-17T05:03:58;75.40;;;36.30;;
6463;SDS011;3265;42.694;23.282;2022-10-17T05:06:25;71.67;;;35.57;;
6463;SDS011;3265;42.694;23.282;2022-10-17T05:08:53;69.90;;;34.23;;
6463;SDS011;3265;42.694;23.282;2022-10-17T05:11:20;60.63;;;31.87;;
6463;SDS011;3265;42.694;23.282;2022-10-17T05:13:48;71.73;;;32.53;;
6463;SDS011;3265;42.694;23.282;2022-10-17T05:16:16;82.43;;;31.10;;
6463;SDS011;3265;42.694;23.282;2022-10-17T05:18:43;72.70;;;31.63;;
6463;SDS011;3265;42.694;23.282;2022-10-17T05:21:11;63.97;;;30.27;;
6463;SDS011;3265;42.694;23.282;2022-10-17T05:23:38;54.20;;;29.17;;
6463;SDS011;3265;42.694;23.282;2022-10-17T05:26:05;59.60;;;29.43;;
6463;SDS011;3265;42.694;23.282;2022-10-17T05:28:32;51.43;;;27.83;;
6463;SDS011;3265;42.694;23.282;2022-10-17T05:31:01;59.33;;;28.20;;
6463;SDS011;3265;42.694;23.282;2022-10-17T05:33:28;57.93;;;26.83;;
6463;SDS011;3265;42.694;23.282;2022-10-17T05:35:55;58.07;;;27.13;;
6463;SDS011;3265;42.694;23.282;2022-10-17T05:38:24;54.47;;;26.73;;
6463;SDS011;3265;42.694;23.282;2022-10-17T05:40:51;68.53;;;28.57;;
6463;SDS011;3265;42.694;23.282;2022-10-17T05:43:21;50.93;;;22.87;;
6463;SDS011;3265;42.694;23.282;2022-10-17T05:45:48;58.03;;;22.87;;
6463;SDS011;3265;42.694;23.282;2022-10-17T05:48:15;37.53;;;19.73;;
6463;SDS011;3265;42.694;23.282;2022-10-17T05:50:42;39.73;;;20.83;;
6463;SDS011;3265;42.694;23.282;2022-10-17T05:53:09;37.10;;;19.83;;
6463;SDS011;3265;42.694;23.282;2022-10-17T05:55:37;37.30;;;18.77;;
6463;SDS011;3265;42.694;23.282;2022-10-17T05:58:04;36.30;;;17.80;;
6463;SDS011;3265;42.694;23.282;2022-10-17T06:00:30;31.27;;;17.67;;
6463;SDS011;3265;42.694;23.282;2022-10-17T06:02:57;35.50;;;16.03;;
6463;SDS011;3265;42.694;23.282;2022-10-17T06:05:24;25.57;;;15.40;;
6463;SDS011;3265;42.694;23.282;2022-10-17T06:07:51;24.90;;;14.33;;
6463;SDS011;3265;42.694;23.282;2022-10-17T06:10:17;22.13;;;13.40;;
6463;SDS011;3265;42.694;23.282;2022-10-17T06:12:46;20.20;;;12.90;;
6463;SDS011;3265;42.694;23.282;2022-10-17T06:15:12;20.07;;;12.50;;
6463;SDS011;3265;42.694;23.282;2022-10-17T06:17:39;19.97;;;12.10;;
6463;SDS011;3265;42.694;23.282;2022-10-17T06:20:06;21.77;;;11.67;;
6463;SDS011;3265;42.694;23.282;2022-10-17T06:22:34;19.63;;;11.27;;
6463;SDS011;3265;42.694;23.282;2022-10-17T06:25:01;17.33;;;11.20;;
6463;SDS011;3265;42.694;23.282;2022-10-17T06:27:28;19.10;;;11.83;;
6463;SDS011;3265;42.694;23.282;2022-10-17T06:29:56;26.70;;;13.70;;
6463;SDS011;3265;42.694;23.282;2022-10-17T06:32:24;23.07;;;14.50;;
6463;SDS011;3265;42.694;23.282;2022-10-17T06:34:51;25.33;;;14.57;;
6463;SDS011;3265;42.694;23.282;2022-10-17T06:37:18;28.80;;;15.60;;
6463;SDS011;3265;42.694;23.282;2022-10-17T06:39:45;26.23;;;14.67;;
6463;SDS011;3265;42.694;23.282;2022-10-17T06:42:11;32.00;;;16.17;;
6463;SDS011;3265;42.694;23.282;2022-10-17T06:44:38;28.53;;;16.20;;
6463;SDS011;3265;42.694;23.282;2022-10-17T06:47:07;35.50;;;17.53;;
6463;SDS011;3265;42.694;23.282;2022-10-17T06:49:34;29.67;;;16.87;;
6463;SDS011;3265;42.694;23.282;2022-10-17T06:52:01;33.83;;;17.27;;
6463;SDS011;3265;42.694;23.282;2022-10-17T06:54:28;28.13;;;17.63;;
6463;SDS011;3265;42.694;23.282;2022-10-17T06:56:55;24.23;;;16.10;;
6463;SDS011;3265;42.694;23.282;2022-10-17T06:59:22;26.73;;;15.20;;
6463;SDS011;3265;42.694;23.282;2022-10-17T07:01:48;22.97;;;14.73;;
6463;SDS011;3265;42.694;23.282;2022-10-17T07:04:16;25.27;;;16.33;;
6463;SDS011;3265;42.694;23.282;2022-10-17T07:06:43;28.73;;;15.53;;
6463;SDS011;3265;42.694;23.282;2022-10-17T07:09:10;31.07;;;15.83;;
6463;SDS011;3265;42.694;23.282;2022-10-17T07:11:37;31.90;;;16.33;;
6463;SDS011;3265;42.694;23.282;2022-10-17T07:14:04;33.73;;;17.80;;
6463;SDS011;3265;42.694;23.282;2022-10-17T07:16:32;31.63;;;18.27;;
6463;SDS011;3265;42.694;23.282;2022-10-17T07:18:59;29.87;;;18.40;;
6463;SDS011;3265;42.694;23.282;2022-10-17T07:21:27;33.70;;;17.80;;
6463;SDS011;3265;42.694;23.282;2022-10-17T07:23:54;36.43;;;18.20;;
6463;SDS011;3265;42.694;23.282;2022-10-17T07:26:21;36.50;;;18.20;;
6463;SDS011;3265;42.694;23.282;2022-10-17T07:28:50;33.43;;;18.43;;
6463;SDS011;3265;42.694;23.282;2022-10-17T07:31:19;36.83;;;17.60;;
6463;SDS011;3265;42.694;23.282;2022-10-17T07:33:47;33.90;;;18.37;;
6463;SDS011;3265;42.694;23.282;2022-10-17T07:36:14;36.53;;;18.83;;
6463;SDS011;3265;42.694;23.282;2022-10-17T07:38:43;30.97;;;19.27;;
6463;SDS011;3265;42.694;23.282;2022-10-17T07:41:10;36.83;;;19.63;;
6463;SDS011;3265;42.694;23.282;2022-10-17T07:43:37;33.17;;;18.80;;
6463;SDS011;3265;42.694;23.282;2022-10-17T07:46:06;31.87;;;19.37;;
6463;SDS011;3265;42.694;23.282;2022-10-17T07:48:33;41.77;;;20.60;;
6463;SDS011;3265;42.694;23.282;2022-10-17T07:51:01;40.93;;;19.77;;
6463;SDS011;3265;42.694;23.282;2022-10-17T07:53:33;30.13;;;19.37;;
6463;SDS011;3265;42.694;23.282;2022-10-17T07:56:03;34.60;;;19.80;;
6463;SDS011;3265;42.694;23.282;2022-10-17T07:58:31;37.67;;;20.60;;
6463;SDS011;3265;42.694;23.282;2022-10-17T08:00:59;38.90;;;19.73;;
6463;SDS011;3265;42.694;23.282;2022-10-17T08:03:26;36.40;;;20.13;;
6463;SDS011;3265;42.694;23.282;2022-10-17T08:05:55;43.63;;;20.67;;
6463;SDS011;3265;42.694;23.282;2022-10-17T08:08:24;35.07;;;19.70;;
6463;SDS011;3265;42.694;23.282;2022-10-17T08:10:51;40.47;;;20.53;;
6463;SDS011;3265;42.694;23.282;2022-10-17T08:13:20;41.00;;;20.27;;
6463;SDS011;3265;42.694;23.282;2022-10-17T08:16:08;39.47;;;19.67;;
6463;SDS011;3265;42.694;23.282;2022-10-17T08:18:41;38.20;;;20.73;;
6463;SDS011;3265;42.694;23.282;2022-10-17T08:21:09;34.23;;;19.00;;
6463;SDS011;3265;42.694;23.282;2022-10-17T08:23:37;37.73;;;19.20;;
6463;SDS011;3265;42.694;23.282;2022-10-17T08:26:05;36.70;;;20.10;;
6463;SDS011;3265;42.694;23.282;2022-10-17T08:28:36;33.83;;;20.37;;
6463;SDS011;3265;42.694;23.282;2022-10-17T08:31:04;31.43;;;19.27;;
6463;SDS011;3265;42.694;23.282;2022-10-17T08:33:32;29.77;;;18.80;;
6463;SDS011;3265;42.694;23.282;2022-10-17T08:35:59;38.03;;;19.67;;
6463;SDS011;3265;42.694;23.282;2022-10-17T08:38:27;36.70;;;19.03;;
6463;SDS011;3265;42.694;23.282;2022-10-17T08:40:54;32.97;;;18.40;;
6463;SDS011;3265;42.694;23.282;2022-10-17T08:43:30;26.43;;;18.13;;
6463;SDS011;3265;42.694;23.282;2022-10-17T08:46:08;37.00;;;16.63;;
6463;SDS011;3265;42.694;23.282;2022-10-17T08:48:36;27.07;;;16.30;;
6463;SDS011;3265;42.694;23.282;2022-10-17T08:51:08;32.17;;;16.67;;
6463;SDS011;3265;42.694;23.282;2022-10-17T08:53:40;30.67;;;16.67;;
6463;SDS011;3265;42.694;23.282;2022-10-17T08:56:17;30.37;;;17.07;;
6463;SDS011;3265;42.694;23.282;2022-10-17T08:58:47;30.30;;;16.80;;
6463;SDS011;3265;42.694;23.282;2022-10-17T09:01:21;29.57;;;16.67;;
6463;SDS011;3265;42.694;23.282;2022-10-17T09:07:02;20.47;;;12.53;;
6463;SDS011;3265;42.694;23.282;2022-10-17T09:09:36;19.27;;;11.53;;
6463;SDS011;3265;42.694;23.282;2022-10-17T09:12:14;16.97;;;10.87;;
6463;SDS011;3265;42.694;23.282;2022-10-17T09:14:55;18.77;;;10.63;;
6463;SDS011;3265;42.694;23.282;2022-10-17T09:17:35;21.07;;;10.17;;
6463;SDS011;3265;42.694;23.282;2022-10-17T09:20:09;21.23;;;9.20;;
6463;SDS011;3265;42.694;23.282;2022-10-17T09:22:45;14.00;;;9.43;;
6463;SDS011;3265;42.694;23.282;2022-10-17T09:25:15;17.10;;;10.20;;
6463;SDS011;3265;42.694;23.282;2022-10-17T09:27:45;17.85;;;9.95;;
6463;SDS011;3265;42.694;23.282;2022-10-17T09:33:04;15.88;;;7.35;;
6463;SDS011;3265;42.694;23.282;2022-10-17T09:35:37;10.57;;;6.68;;
6463;SDS011;3265;42.694;23.282;2022-10-17T09:38:06;12.65;;;7.15;;
6463;SDS011;3265;42.694;23.282;2022-10-17T09:40:40;10.45;;;6.53;;
6463;SDS011;3265;42.694;23.282;2022-10-17T09:43:10;16.10;;;6.22;;
6463;SDS011;3265;42.694;23.282;2022-10-17T09:45:42;11.98;;;6.95;;
6463;SDS011;3265;42.694;23.282;2022-10-17T09:48:17;14.00;;;6.82;;
6463;SDS011;3265;42.694;23.282;2022-10-17T09:50:51;11.23;;;6.78;;
6463;SDS011;3265;42.694;23.282;2022-10-17T09:53:19;14.48;;;6.75;;
6463;SDS011;3265;42.694;23.282;2022-10-17T09:55:49;11.07;;;5.82;;
6463;SDS011;3265;42.694;23.282;2022-10-17T09:58:19;13.18;;;6.18;;
6463;SDS011;3265;42.694;23.282;2022-10-17T10:00:49;9.70;;;5.90;;
6463;SDS011;3265;42.694;23.282;2022-10-17T10:03:16;12.82;;;6.88;;
6463;SDS011;3265;42.694;23.282;2022-10-17T10:05:57;13.65;;;6.40;;
6463;SDS011;3265;42.694;23.282;2022-10-17T10:08:26;11.50;;;5.60;;
6463;SDS011;3265;42.694;23.282;2022-10-17T10:10:59;8.13;;;4.60;;
6463;SDS011;3265;42.694;23.282;2022-10-17T10:13:28;13.57;;;6.00;;
6463;SDS011;3265;42.694;23.282;2022-10-17T10:16:11;9.63;;;5.28;;
6463;SDS011;3265;42.694;23.282;2022-10-17T10:18:40;11.43;;;5.25;;
6463;SDS011;3265;42.694;23.282;2022-10-17T10:21:09;9.38;;;4.32;;
6463;SDS011;3265;42.694;23.282;2022-10-17T10:23:38;6.50;;;4.03;;
6463;SDS011;3265;42.694;23.282;2022-10-17T10:26:13;7.50;;;4.10;;
6463;SDS011;3265;42.694;23.282;2022-10-17T10:28:53;5.47;;;4.10;;
6463;SDS011;3265;42.694;23.282;2022-10-17T10:31:27;6.13;;;3.67;;
6463;SDS011;3265;42.694;23.282;2022-10-17T10:36:48;5.80;;;3.40;;
6463;SDS011;3265;42.694;23.282;2022-10-17T10:42:16;5.68;;;3.00;;
6463;SDS011;3265;42.694;23.282;2022-10-17T10:44:46;6.53;;;3.08;;
6463;SDS011;3265;42.694;23.282;2022-10-17T10:47:17;8.05;;;2.97;;
6463;SDS011;3265;42.694;23.282;2022-10-17T10:49:49;4.55;;;3.15;;
6463;SDS011;3265;42.694;23.282;2022-10-17T10:52:23;5.28;;;3.25;;
6463;SDS011;3265;42.694;23.282;2022-10-17T10:54:58;7.07;;;3.30;;
6463;SDS011;3265;42.694;23.282;2022-10-17T10:57:35;6.32;;;3.55;;
6463;SDS011;3265;42.694;23.282;2022-10-17T11:00:05;6.35;;;3.30;;
6463;SDS011;3265;42.694;23.282;2022-10-17T11:02:41;7.80;;;3.25;;
6463;SDS011;3265;42.694;23.282;2022-10-17T11:05:19;8.73;;;3.45;;
6463;SDS011;3265;42.694;23.282;2022-10-17T11:07:50;4.60;;;3.30;;
6463;SDS011;3265;42.694;23.282;2022-10-17T11:10:22;6.43;;;3.35;;
6463;SDS011;3265;42.694;23.282;2022-10-17T11:12:56;4.07;;;3.25;;
6463;SDS011;3265;42.694;23.282;2022-10-17T11:15:29;4.63;;;3.10;;
6463;SDS011;3265;42.694;23.282;2022-10-17T11:18:02;5.22;;;3.15;;
6463;SDS011;3265;42.694;23.282;2022-10-17T11:20:33;3.47;;;2.80;;
6463;SDS011;3265;42.694;23.282;2022-10-17T11:23:11;5.38;;;3.40;;
6463;SDS011;3265;42.694;23.282;2022-10-17T11:25:45;5.38;;;3.00;;
6463;SDS011;3265;42.694;23.282;2022-10-17T11:28:14;5.10;;;3.38;;
6463;SDS011;3265;42.694;23.282;2022-10-17T11:30:47;3.83;;;3.13;;
6463;SDS011;3265;42.694;23.282;2022-10-17T11:33:21;9.32;;;3.30;;
6463;SDS011;3265;42.694;23.282;2022-10-17T11:35:53;5.57;;;3.30;;
6463;SDS011;3265;42.694;23.282;2022-10-17T11:38:29;3.45;;;3.05;;
6463;SDS011;3265;42.694;23.282;2022-10-17T11:41:04;5.40;;;3.45;;
6463;SDS011;3265;42.694;23.282;2022-10-17T11:43:35;5.97;;;3.30;;
6463;SDS011;3265;42.694;23.282;2022-10-17T11:46:11;5.25;;;3.00;;
6463;SDS011;3265;42.694;23.282;2022-10-17T11:48:43;6.63;;;3.33;;
6463;SDS011;3265;42.694;23.282;2022-10-17T11:51:18;5.53;;;3.20;;
6463;SDS011;3265;42.694;23.282;2022-10-17T11:53:46;3.92;;;3.05;;
6463;SDS011;3265;42.694;23.282;2022-10-17T11:56:19;4.15;;;3.10;;
6463;SDS011;3265;42.694;23.282;2022-10-17T11:58:54;6.60;;;3.28;;
6463;SDS011;3265;42.694;23.282;2022-10-17T12:01:31;4.93;;;3.30;;
6463;SDS011;3265;42.694;23.282;2022-10-17T12:04:06;5.05;;;2.97;;
6463;SDS011;3265;42.694;23.282;2022-10-17T12:06:46;4.55;;;3.40;;
6463;SDS011;3265;42.694;23.282;2022-10-17T12:09:26;4.45;;;3.38;;
6463;SDS011;3265;42.694;23.282;2022-10-17T12:12:01;4.28;;;3.22;;
6463;SDS011;3265;42.694;23.282;2022-10-17T12:14:39;4.68;;;3.17;;
6463;SDS011;3265;42.694;23.282;2022-10-17T12:17:24;4.63;;;3.25;;
6463;SDS011;3265;42.694;23.282;2022-10-17T12:22:53;4.00;;;3.10;;
6463;SDS011;3265;42.694;23.282;2022-10-17T12:25:22;5.13;;;3.10;;
6463;SDS011;3265;42.694;23.282;2022-10-17T12:28:01;5.65;;;3.47;;
6463;SDS011;3265;42.694;23.282;2022-10-17T12:30:35;5.05;;;3.50;;
6463;SDS011;3265;42.694;23.282;2022-10-17T12:33:04;5.57;;;3.70;;
6463;SDS011;3265;42.694;23.282;2022-10-17T12:35:47;5.72;;;3.70;;
6463;SDS011;3265;42.694;23.282;2022-10-17T12:38:25;7.05;;;3.42;;
6463;SDS011;3265;42.694;23.282;2022-10-17T12:40:53;6.97;;;3.60;;
6463;SDS011;3265;42.694;23.282;2022-10-17T12:43:35;10.07;;;3.28;;
6463;SDS011;3265;42.694;23.282;2022-10-17T12:52:16;7.18;;;3.38;;
6463;SDS011;3265;42.694;23.282;2022-10-17T12:54:50;6.88;;;3.20;;
6463;SDS011;3265;42.694;23.282;2022-10-17T12:57:24;7.65;;;3.28;;
6463;SDS011;3265;42.694;23.282;2022-10-17T12:59:57;4.90;;;3.08;;
6463;SDS011;3265;42.694;23.282;2022-10-17T13:02:27;5.80;;;3.00;;
6463;SDS011;3265;42.694;23.282;2022-10-17T13:04:57;4.88;;;3.10;;
6463;SDS011;3265;42.694;23.282;2022-10-17T13:07:33;6.38;;;3.30;;
6463;SDS011;3265;42.694;23.282;2022-10-17T13:10:01;6.88;;;3.10;;
6463;SDS011;3265;42.694;23.282;2022-10-17T13:12:31;5.20;;;3.70;;
6463;SDS011;3265;42.694;23.282;2022-10-17T13:15:02;3.88;;;2.97;;
6463;SDS011;3265;42.694;23.282;2022-10-17T13:17:33;5.40;;;3.53;;
6463;SDS011;3265;42.694;23.282;2022-10-17T13:20:00;5.22;;;3.30;;
6463;SDS011;3265;42.694;23.282;2022-10-17T13:22:29;7.72;;;3.40;;
6463;SDS011;3265;42.694;23.282;2022-10-17T13:25:08;7.20;;;2.90;;
6463;SDS011;3265;42.694;23.282;2022-10-17T13:27:43;7.10;;;3.85;;
6463;SDS011;3265;42.694;23.282;2022-10-17T13:30:21;10.30;;;3.67;;
6463;SDS011;3265;42.694;23.282;2022-10-17T13:32:51;5.35;;;3.20;;
6463;SDS011;3265;42.694;23.282;2022-10-17T13:35:22;5.75;;;3.30;;
6463;SDS011;3265;42.694;23.282;2022-10-17T13:37:52;8.90;;;3.63;;
6463;SDS011;3265;42.694;23.282;2022-10-17T13:40:23;5.13;;;3.15;;
6463;SDS011;3265;42.694;23.282;2022-10-17T13:42:52;5.85;;;2.95;;
6463;SDS011;3265;42.694;23.282;2022-10-17T13:45:23;9.02;;;3.63;;
6463;SDS011;3265;42.694;23.282;2022-10-17T13:47:54;3.80;;;3.20;;
6463;SDS011;3265;42.694;23.282;2022-10-17T13:50:28;5.43;;;3.10;;
6463;SDS011;3265;42.694;23.282;2022-10-17T13:53:15;5.97;;;3.33;;
6463;SDS011;3265;42.694;23.282;2022-10-17T13:55:56;7.72;;;3.17;;
6463;SDS011;3265;42.694;23.282;2022-10-17T13:58:29;4.88;;;3.17;;
6463;SDS011;3265;42.694;23.282;2022-10-17T14:01:00;5.30;;;3.55;;
6463;SDS011;3265;42.694;23.282;2022-10-17T14:03:27;6.50;;;3.53;;
6463;SDS011;3265;42.694;23.282;2022-10-17T14:05:57;8.60;;;3.55;;
6463;SDS011;3265;42.694;23.282;2022-10-17T14:08:45;9.45;;;3.40;;
6463;SDS011;3265;42.694;23.282;2022-10-17T14:11:24;6.93;;;3.63;;
6463;SDS011;3265;42.694;23.282;2022-10-17T14:13:54;10.45;;;3.80;;
6463;SDS011;3265;42.694;23.282;2022-10-17T14:16:23;5.78;;;4.15;;
6463;SDS011;3265;42.694;23.282;2022-10-17T14:18:51;5.78;;;3.67;;
6463;SDS011;3265;42.694;23.282;2022-10-17T14:21:20;8.00;;;4.18;;
6463;SDS011;3265;42.694;23.282;2022-10-17T14:23:48;9.55;;;4.00;;
6463;SDS011;3265;42.694;23.282;2022-10-17T14:26:17;8.27;;;4.15;;
6463;SDS011;3265;42.694;23.282;2022-10-17T14:28:48;5.28;;;3.85;;
6463;SDS011;3265;42.694;23.282;2022-10-17T14:31:18;5.60;;;3.83;;
6463;SDS011;3265;42.694;23.282;2022-10-17T14:33:50;6.35;;;3.80;;
6463;SDS011;3265;42.694;23.282;2022-10-17T14:36:18;9.10;;;4.00;;
6463;SDS011;3265;42.694;23.282;2022-10-17T14:38:46;14.18;;;4.55;;
6463;SDS011;3265;42.694;23.282;2022-10-17T14:41:18;8.43;;;4.03;;
6463;SDS011;3265;42.694;23.282;2022-10-17T14:43:54;5.78;;;3.80;;
6463;SDS011;3265;42.694;23.282;2022-10-17T14:46:23;7.68;;;4.07;;
6463;SDS011;3265;42.694;23.282;2022-10-17T14:48:51;6.50;;;4.00;;
6463;SDS011;3265;42.694;23.282;2022-10-17T14:51:20;9.77;;;4.60;;
6463;SDS011;3265;42.694;23.282;2022-10-17T14:56:48;7.70;;;4.28;;
6463;SDS011;3265;42.694;23.282;2022-10-17T14:59:18;8.65;;;4.75;;
6463;SDS011;3265;42.694;23.282;2022-10-17T15:01:48;9.48;;;4.45;;
6463;SDS011;3265;42.694;23.282;2022-10-17T15:04:16;8.32;;;4.70;;
6463;SDS011;3265;42.694;23.282;2022-10-17T15:06:43;7.22;;;4.85;;
6463;SDS011;3265;42.694;23.282;2022-10-17T15:09:10;6.40;;;4.43;;
6463;SDS011;3265;42.694;23.282;2022-10-17T15:11:37;7.55;;;4.65;;
6463;SDS011;3265;42.694;23.282;2022-10-17T15:14:04;6.35;;;4.38;;
6463;SDS011;3265;42.694;23.282;2022-10-17T15:16:32;8.48;;;4.65;;
6463;SDS011;3265;42.694;23.282;2022-10-17T15:19:01;10.27;;;4.70;;
6463;SDS011;3265;42.694;23.282;2022-10-17T15:21:28;7.43;;;4.43;;
6463;SDS011;3265;42.694;23.282;2022-10-17T15:23:55;10.05;;;4.80;;
6463;SDS011;3265;42.694;23.282;2022-10-17T15:26:23;9.70;;;5.38;;
6463;SDS011;3265;42.694;23.282;2022-10-17T15:28:51;8.88;;;4.60;;
6463;SDS011;3265;42.694;23.282;2022-10-17T15:31:20;10.20;;;4.97;;